sensor_id;sensor_type;location;lat;lon;timestamp;P1;durP1;ratioP1;P2;durP2;ratioP2
50821;SDS011;36794;51.212;6.980;2022-12-07T01:17:14;71.07;;;37.77;;
50821;SDS011;36794;51.212;6.980;2022-12-07T01:19:40;61.30;;;37.63;;
50821;SDS011;36794;51.212;6.980;2022-12-07T01:22:06;69.63;;;38.73;;
50821;SDS011;36794;51.212;6.980;2022-12-07T01:24:32;72.13;;;37.73;;
50821;SDS011;36794;51.212;6.980;2022-12-07T01:26:58;68.30;;;38.30;;
50821;SDS011;36794;51.212;6.980;2022-12-07T01:29:23;69.77;;;38.33;;
50821;SDS011;36794;51.212;6.980;2022-12-07T01:31:49;65.70;;;38.90;;
50821;SDS011;36794;51.212;6.980;2022-12-07T01:34:15;67.83;;;38.67;;
50821;SDS011;36794;51.212;6.980;2022-12-07T01:36:41;62.53;;;38.60;;
50821;SDS011;36794;51.212;6.980;2022-12-07T01:39:08;66.73;;;37.23;;
50821;SDS011;36794;51.212;6.980;2022-12-07T01:41:36;67.93;;;38.13;;
50821;SDS011;36794;51.212;6.980;2022-12-07T01:44:09;65.10;;;38.77;;
50821;SDS011;36794;51.212;6.980;2022-12-07T01:46:35;68.87;;;38.63;;
50821;SDS011;36794;51.212;6.980;2022-12-07T01:49:01;71.60;;;38.93;;
50821;SDS011;36794;51.212;6.980;2022-12-07T01:51:27;62.10;;;36.50;;
50821;SDS011;36794;51.212;6.980;2022-12-07T01:53:53;63.70;;;39.27;;
50821;SDS011;36794;51.212;6.980;2022-12-07T01:56:20;60.90;;;37.73;;
50821;SDS011;36794;51.212;6.980;2022-12-07T01:58:48;64.30;;;37.73;;
50821;SDS011;36794;51.212;6.980;2022-12-07T02:01:14;71.23;;;37.47;;
50821;SDS011;36794;51.212;6.980;2022-12-07T02:03:41;69.10;;;38.60;;
50821;SDS011;36794;51.212;6.980;2022-12-07T02:06:08;63.23;;;37.30;;
50821;SDS011;36794;51.212;6.980;2022-12-07T02:08:36;57.87;;;36.10;;
50821;SDS011;36794;51.212;6.980;2022-12-07T02:11:02;66.03;;;38.37;;
50821;SDS011;36794;51.212;6.980;2022-12-07T02:13:30;69.37;;;38.10;;
50821;SDS011;36794;51.212;6.980;2022-12-07T02:16:03;61.93;;;38.03;;
50821;SDS011;36794;51.212;6.980;2022-12-07T02:23:52;64.87;;;37.53;;
50821;SDS011;36794;51.212;6.980;2022-12-07T02:31:35;64.90;;;35.83;;
50821;SDS011;36794;51.212;6.980;2022-12-07T02:34:04;67.97;;;37.47;;
50821;SDS011;36794;51.212;6.980;2022-12-07T02:36:32;56.07;;;35.80;;
50821;SDS011;36794;51.212;6.980;2022-12-07T02:39:18;63.30;;;37.23;;
50821;SDS011;36794;51.212;6.980;2022-12-07T02:41:49;58.63;;;36.00;;
50821;SDS011;36794;51.212;6.980;2022-12-07T02:44:18;61.20;;;35.00;;
50821;SDS011;36794;51.212;6.980;2022-12-07T02:46:50;59.00;;;34.87;;
50821;SDS011;36794;51.212;6.980;2022-12-07T02:49:18;55.67;;;34.17;;
50821;SDS011;36794;51.212;6.980;2022-12-07T02:51:45;57.63;;;33.27;;
50821;SDS011;36794;51.212;6.980;2022-12-07T02:54:12;55.73;;;34.23;;
50821;SDS011;36794;51.212;6.980;2022-12-07T02:56:49;59.90;;;33.87;;
50821;SDS011;36794;51.212;6.980;2022-12-07T03:04:42;60.43;;;33.93;;
50821;SDS011;36794;51.212;6.980;2022-12-07T03:07:58;56.53;;;33.20;;
50821;SDS011;36794;51.212;6.980;2022-12-07T03:09:59;64.77;;;35.40;;
50821;SDS011;36794;51.212;6.980;2022-12-07T03:12:32;60.03;;;35.43;;
50821;SDS011;36794;51.212;6.980;2022-12-07T03:17:50;56.60;;;34.10;;
50821;SDS011;36794;51.212;6.980;2022-12-07T03:20:17;62.43;;;34.40;;
50821;SDS011;36794;51.212;6.980;2022-12-07T03:22:44;56.20;;;35.10;;
50821;SDS011;36794;51.212;6.980;2022-12-07T03:25:13;59.57;;;34.07;;
50821;SDS011;36794;51.212;6.980;2022-12-07T03:30:17;56.50;;;32.80;;
50821;SDS011;36794;51.212;6.980;2022-12-07T03:32:45;55.88;;;32.97;;
50821;SDS011;36794;51.212;6.980;2022-12-07T03:35:17;51.63;;;31.63;;
50821;SDS011;36794;51.212;6.980;2022-12-07T03:37:54;51.77;;;32.23;;
50821;SDS011;36794;51.212;6.980;2022-12-07T03:42:56;55.70;;;33.20;;
50821;SDS011;36794;51.212;6.980;2022-12-07T03:45:26;51.77;;;32.27;;
50821;SDS011;36794;51.212;6.980;2022-12-07T03:47:59;56.27;;;32.53;;
50821;SDS011;36794;51.212;6.980;2022-12-07T03:52:58;49.63;;;31.13;;
50821;SDS011;36794;51.212;6.980;2022-12-07T03:55:31;52.27;;;32.10;;
50821;SDS011;36794;51.212;6.980;2022-12-07T03:57:59;57.50;;;31.97;;
50821;SDS011;36794;51.212;6.980;2022-12-07T04:00:26;52.47;;;31.13;;
50821;SDS011;36794;51.212;6.980;2022-12-07T04:02:52;49.57;;;29.73;;
50821;SDS011;36794;51.212;6.980;2022-12-07T04:05:19;49.63;;;30.47;;
50821;SDS011;36794;51.212;6.980;2022-12-07T04:07:45;48.27;;;29.23;;
50821;SDS011;36794;51.212;6.980;2022-12-07T04:10:11;51.17;;;29.47;;
50821;SDS011;36794;51.212;6.980;2022-12-07T04:12:37;47.13;;;29.13;;
50821;SDS011;36794;51.212;6.980;2022-12-07T04:15:03;52.17;;;29.53;;
50821;SDS011;36794;51.212;6.980;2022-12-07T04:17:29;52.27;;;29.73;;
50821;SDS011;36794;51.212;6.980;2022-12-07T04:19:55;48.53;;;29.00;;
50821;SDS011;36794;51.212;6.980;2022-12-07T04:22:21;50.70;;;29.60;;
50821;SDS011;36794;51.212;6.980;2022-12-07T04:24:47;48.27;;;29.70;;
50821;SDS011;36794;51.212;6.980;2022-12-07T04:27:13;50.93;;;29.80;;
50821;SDS011;36794;51.212;6.980;2022-12-07T04:29:39;47.33;;;29.63;;
50821;SDS011;36794;51.212;6.980;2022-12-07T04:32:05;46.03;;;28.60;;
50821;SDS011;36794;51.212;6.980;2022-12-07T04:34:31;49.33;;;29.23;;
50821;SDS011;36794;51.212;6.980;2022-12-07T04:36:57;46.57;;;29.23;;
50821;SDS011;36794;51.212;6.980;2022-12-07T04:39:27;46.97;;;27.97;;
50821;SDS011;36794;51.212;6.980;2022-12-07T04:41:53;48.20;;;29.90;;
50821;SDS011;36794;51.212;6.980;2022-12-07T04:44:19;50.50;;;29.57;;
50821;SDS011;36794;51.212;6.980;2022-12-07T04:46:46;48.27;;;27.93;;
50821;SDS011;36794;51.212;6.980;2022-12-07T04:49:12;46.20;;;29.33;;
50821;SDS011;36794;51.212;6.980;2022-12-07T04:51:38;50.97;;;28.73;;
50821;SDS011;36794;51.212;6.980;2022-12-07T04:54:04;49.03;;;29.77;;
50821;SDS011;36794;51.212;6.980;2022-12-07T04:56:30;49.23;;;29.37;;
50821;SDS011;36794;51.212;6.980;2022-12-07T04:58:56;50.23;;;28.27;;
50821;SDS011;36794;51.212;6.980;2022-12-07T05:01:22;45.70;;;28.83;;
50821;SDS011;36794;51.212;6.980;2022-12-07T05:03:48;46.10;;;28.70;;
50821;SDS011;36794;51.212;6.980;2022-12-07T05:06:14;41.70;;;27.47;;
50821;SDS011;36794;51.212;6.980;2022-12-07T05:08:40;43.10;;;26.20;;
50821;SDS011;36794;51.212;6.980;2022-12-07T05:11:07;44.50;;;26.73;;
50821;SDS011;36794;51.212;6.980;2022-12-07T05:13:34;45.50;;;28.17;;
50821;SDS011;36794;51.212;6.980;2022-12-07T05:16:00;43.87;;;28.10;;
50821;SDS011;36794;51.212;6.980;2022-12-07T05:18:26;46.93;;;27.80;;
50821;SDS011;36794;51.212;6.980;2022-12-07T05:20:52;41.93;;;26.60;;
50821;SDS011;36794;51.212;6.980;2022-12-07T05:23:18;45.27;;;27.37;;
50821;SDS011;36794;51.212;6.980;2022-12-07T05:25:44;41.57;;;26.83;;
50821;SDS011;36794;51.212;6.980;2022-12-07T05:28:10;49.30;;;27.60;;
50821;SDS011;36794;51.212;6.980;2022-12-07T05:30:36;44.83;;;26.47;;
50821;SDS011;36794;51.212;6.980;2022-12-07T05:33:02;44.97;;;27.33;;
50821;SDS011;36794;51.212;6.980;2022-12-07T05:35:28;45.30;;;27.10;;
50821;SDS011;36794;51.212;6.980;2022-12-07T05:37:54;46.17;;;26.70;;
50821;SDS011;36794;51.212;6.980;2022-12-07T05:40:21;40.30;;;24.60;;
50821;SDS011;36794;51.212;6.980;2022-12-07T05:42:47;42.50;;;25.47;;
50821;SDS011;36794;51.212;6.980;2022-12-07T05:45:13;38.13;;;25.23;;
50821;SDS011;36794;51.212;6.980;2022-12-07T05:47:39;44.63;;;26.43;;
50821;SDS011;36794;51.212;6.980;2022-12-07T05:50:05;37.73;;;24.83;;
50821;SDS011;36794;51.212;6.980;2022-12-07T05:52:32;41.00;;;25.53;;
50821;SDS011;36794;51.212;6.980;2022-12-07T05:54:57;40.77;;;24.87;;
50821;SDS011;36794;51.212;6.980;2022-12-07T05:57:23;43.70;;;25.47;;
50821;SDS011;36794;51.212;6.980;2022-12-07T05:59:49;41.00;;;24.67;;
50821;SDS011;36794;51.212;6.980;2022-12-07T06:02:15;39.33;;;24.30;;
50821;SDS011;36794;51.212;6.980;2022-12-07T06:04:43;40.40;;;25.23;;
50821;SDS011;36794;51.212;6.980;2022-12-07T06:07:10;40.67;;;24.37;;
50821;SDS011;36794;51.212;6.980;2022-12-07T06:09:36;40.80;;;23.90;;
50821;SDS011;36794;51.212;6.980;2022-12-07T06:12:02;40.43;;;24.17;;
50821;SDS011;36794;51.212;6.980;2022-12-07T06:14:47;38.83;;;23.35;;
50821;SDS011;36794;51.212;6.980;2022-12-07T06:17:13;39.93;;;24.30;;
50821;SDS011;36794;51.212;6.980;2022-12-07T06:19:39;38.80;;;23.13;;
50821;SDS011;36794;51.212;6.980;2022-12-07T06:22:05;38.63;;;23.80;;
50821;SDS011;36794;51.212;6.980;2022-12-07T06:24:32;39.47;;;23.73;;
50821;SDS011;36794;51.212;6.980;2022-12-07T06:26:58;36.40;;;22.60;;
50821;SDS011;36794;51.212;6.980;2022-12-07T06:29:25;37.07;;;23.20;;
50821;SDS011;36794;51.212;6.980;2022-12-07T06:31:51;39.57;;;23.20;;
50821;SDS011;36794;51.212;6.980;2022-12-07T06:34:19;35.43;;;21.57;;
50821;SDS011;36794;51.212;6.980;2022-12-07T06:36:47;30.80;;;20.93;;
50821;SDS011;36794;51.212;6.980;2022-12-07T06:39:17;40.73;;;21.90;;
50821;SDS011;36794;51.212;6.980;2022-12-07T06:41:43;41.63;;;21.50;;
50821;SDS011;36794;51.212;6.980;2022-12-07T06:44:09;38.27;;;22.10;;
50821;SDS011;36794;51.212;6.980;2022-12-07T06:46:35;37.43;;;21.20;;
50821;SDS011;36794;51.212;6.980;2022-12-07T06:49:01;33.23;;;21.13;;
50821;SDS011;36794;51.212;6.980;2022-12-07T06:51:27;37.73;;;21.73;;
50821;SDS011;36794;51.212;6.980;2022-12-07T06:53:53;37.00;;;21.37;;
50821;SDS011;36794;51.212;6.980;2022-12-07T06:56:19;36.97;;;21.87;;
50821;SDS011;36794;51.212;6.980;2022-12-07T06:58:45;34.80;;;21.07;;
50821;SDS011;36794;51.212;6.980;2022-12-07T07:01:12;36.83;;;21.33;;
50821;SDS011;36794;51.212;6.980;2022-12-07T07:03:38;41.10;;;21.10;;
50821;SDS011;36794;51.212;6.980;2022-12-07T07:06:04;42.37;;;21.77;;
50821;SDS011;36794;51.212;6.980;2022-12-07T07:08:30;38.03;;;21.57;;
50821;SDS011;36794;51.212;6.980;2022-12-07T07:10:56;32.97;;;20.30;;
50821;SDS011;36794;51.212;6.980;2022-12-07T07:13:22;39.33;;;22.73;;
50821;SDS011;36794;51.212;6.980;2022-12-07T07:15:48;41.37;;;22.07;;
50821;SDS011;36794;51.212;6.980;2022-12-07T07:18:14;38.37;;;21.23;;
50821;SDS011;36794;51.212;6.980;2022-12-07T07:20:40;33.10;;;20.27;;
50821;SDS011;36794;51.212;6.980;2022-12-07T07:23:06;31.70;;;19.73;;
50821;SDS011;36794;51.212;6.980;2022-12-07T07:25:32;32.17;;;20.50;;
50821;SDS011;36794;51.212;6.980;2022-12-07T07:27:59;31.57;;;20.37;;
50821;SDS011;36794;51.212;6.980;2022-12-07T07:30:25;33.67;;;19.03;;
50821;SDS011;36794;51.212;6.980;2022-12-07T07:32:51;35.20;;;21.07;;
50821;SDS011;36794;51.212;6.980;2022-12-07T07:35:21;44.40;;;20.97;;
50821;SDS011;36794;51.212;6.980;2022-12-07T07:37:47;42.23;;;21.90;;
50821;SDS011;36794;51.212;6.980;2022-12-07T07:40:13;38.20;;;21.70;;
50821;SDS011;36794;51.212;6.980;2022-12-07T07:42:39;33.40;;;21.00;;
50821;SDS011;36794;51.212;6.980;2022-12-07T07:45:05;36.40;;;21.13;;
50821;SDS011;36794;51.212;6.980;2022-12-07T07:47:31;39.80;;;20.57;;
50821;SDS011;36794;51.212;6.980;2022-12-07T07:49:57;31.83;;;20.83;;
50821;SDS011;36794;51.212;6.980;2022-12-07T07:52:23;34.40;;;20.80;;
50821;SDS011;36794;51.212;6.980;2022-12-07T07:54:49;42.03;;;21.93;;
50821;SDS011;36794;51.212;6.980;2022-12-07T07:57:16;32.67;;;20.57;;
50821;SDS011;36794;51.212;6.980;2022-12-07T07:59:42;34.73;;;20.47;;
50821;SDS011;36794;51.212;6.980;2022-12-07T08:02:15;35.63;;;20.87;;
50821;SDS011;36794;51.212;6.980;2022-12-07T08:04:41;38.13;;;20.97;;
50821;SDS011;36794;51.212;6.980;2022-12-07T08:07:07;31.80;;;19.23;;
50821;SDS011;36794;51.212;6.980;2022-12-07T08:09:33;36.07;;;18.93;;
50821;SDS011;36794;51.212;6.980;2022-12-07T08:11:59;29.13;;;17.97;;
50821;SDS011;36794;51.212;6.980;2022-12-07T08:14:25;31.87;;;18.57;;
50821;SDS011;36794;51.212;6.980;2022-12-07T08:16:52;28.30;;;18.60;;
50821;SDS011;36794;51.212;6.980;2022-12-07T08:19:18;34.70;;;20.33;;
50821;SDS011;36794;51.212;6.980;2022-12-07T08:21:44;34.10;;;20.27;;
50821;SDS011;36794;51.212;6.980;2022-12-07T08:24:10;32.33;;;21.17;;
50821;SDS011;36794;51.212;6.980;2022-12-07T08:26:36;37.60;;;21.50;;
50821;SDS011;36794;51.212;6.980;2022-12-07T08:29:02;36.70;;;22.73;;
50821;SDS011;36794;51.212;6.980;2022-12-07T08:31:28;42.47;;;23.40;;
50821;SDS011;36794;51.212;6.980;2022-12-07T08:33:54;45.50;;;24.27;;
50821;SDS011;36794;51.212;6.980;2022-12-07T08:36:20;34.07;;;21.87;;
50821;SDS011;36794;51.212;6.980;2022-12-07T08:38:49;37.07;;;22.07;;
50821;SDS011;36794;51.212;6.980;2022-12-07T08:41:15;32.87;;;20.67;;
50821;SDS011;36794;51.212;6.980;2022-12-07T08:43:41;40.33;;;23.07;;
50821;SDS011;36794;51.212;6.980;2022-12-07T08:48:34;36.07;;;18.77;;
50821;SDS011;36794;51.212;6.980;2022-12-07T08:51:02;30.80;;;17.70;;
50821;SDS011;36794;51.212;6.980;2022-12-07T08:53:28;34.73;;;18.63;;
50821;SDS011;36794;51.212;6.980;2022-12-07T08:55:54;31.97;;;18.83;;
50821;SDS011;36794;51.212;6.980;2022-12-07T08:58:21;32.00;;;18.97;;
50821;SDS011;36794;51.212;6.980;2022-12-07T09:00:47;31.40;;;17.90;;
50821;SDS011;36794;51.212;6.980;2022-12-07T09:03:13;28.07;;;18.53;;
50821;SDS011;36794;51.212;6.980;2022-12-07T09:05:39;30.50;;;18.40;;
50821;SDS011;36794;51.212;6.980;2022-12-07T09:08:05;36.40;;;19.83;;
50821;SDS011;36794;51.212;6.980;2022-12-07T09:10:31;30.07;;;18.60;;
50821;SDS011;36794;51.212;6.980;2022-12-07T09:12:57;28.53;;;19.00;;
50821;SDS011;36794;51.212;6.980;2022-12-07T09:15:27;35.30;;;18.80;;
50821;SDS011;36794;51.212;6.980;2022-12-07T09:17:53;34.70;;;20.00;;
50821;SDS011;36794;51.212;6.980;2022-12-07T09:20:19;28.00;;;18.40;;
50821;SDS011;36794;51.212;6.980;2022-12-07T09:22:45;32.13;;;17.70;;
50821;SDS011;36794;51.212;6.980;2022-12-07T09:25:11;38.90;;;18.90;;
50821;SDS011;36794;51.212;6.980;2022-12-07T09:27:37;31.57;;;18.37;;
50821;SDS011;36794;51.212;6.980;2022-12-07T09:30:04;26.93;;;17.53;;
50821;SDS011;36794;51.212;6.980;2022-12-07T09:32:30;33.00;;;18.53;;
50821;SDS011;36794;51.212;6.980;2022-12-07T09:34:56;27.70;;;16.00;;
50821;SDS011;36794;51.212;6.980;2022-12-07T09:37:22;28.37;;;15.93;;
50821;SDS011;36794;51.212;6.980;2022-12-07T09:39:48;27.23;;;17.30;;
50821;SDS011;36794;51.212;6.980;2022-12-07T09:44:55;26.57;;;13.90;;
50821;SDS011;36794;51.212;6.980;2022-12-07T09:47:21;25.13;;;13.60;;
50821;SDS011;36794;51.212;6.980;2022-12-07T09:49:47;22.83;;;12.97;;
50821;SDS011;36794;51.212;6.980;2022-12-07T09:52:17;24.87;;;12.87;;
50821;SDS011;36794;51.212;6.980;2022-12-07T09:54:46;26.53;;;14.00;;
50821;SDS011;36794;51.212;6.980;2022-12-07T09:57:13;22.83;;;11.83;;
50821;SDS011;36794;51.212;6.980;2022-12-07T09:59:39;20.33;;;10.97;;
50821;SDS011;36794;51.212;6.980;2022-12-07T10:02:39;18.70;;;10.00;;
50821;SDS011;36794;51.212;6.980;2022-12-07T10:04:57;15.80;;;9.60;;
50821;SDS011;36794;51.212;6.980;2022-12-07T10:07:23;17.87;;;9.30;;
50821;SDS011;36794;51.212;6.980;2022-12-07T10:09:49;16.60;;;8.60;;
50821;SDS011;36794;51.212;6.980;2022-12-07T10:12:15;17.23;;;8.40;;
50821;SDS011;36794;51.212;6.980;2022-12-07T10:17:34;21.30;;;8.60;;
50821;SDS011;36794;51.212;6.980;2022-12-07T10:20:13;17.63;;;8.00;;
50821;SDS011;36794;51.212;6.980;2022-12-07T10:22:53;15.07;;;7.50;;
50821;SDS011;36794;51.212;6.980;2022-12-07T10:25:20;14.83;;;8.13;;
50821;SDS011;36794;51.212;6.980;2022-12-07T10:30:24;15.53;;;7.87;;
50821;SDS011;36794;51.212;6.980;2022-12-07T10:32:51;14.83;;;7.87;;
50821;SDS011;36794;51.212;6.980;2022-12-07T10:37:46;17.63;;;8.20;;
50821;SDS011;36794;51.212;6.980;2022-12-07T10:48:24;16.67;;;8.73;;
50821;SDS011;36794;51.212;6.980;2022-12-07T10:50:57;21.80;;;8.50;;
50821;SDS011;36794;51.212;6.980;2022-12-07T10:53:30;18.43;;;7.73;;
50821;SDS011;36794;51.212;6.980;2022-12-07T10:58:31;19.30;;;7.27;;
50821;SDS011;36794;51.212;6.980;2022-12-07T11:01:13;12.13;;;6.70;;
50821;SDS011;36794;51.212;6.980;2022-12-07T11:03:49;20.23;;;8.17;;
50821;SDS011;36794;51.212;6.980;2022-12-07T11:11:33;12.60;;;6.53;;
50821;SDS011;36794;51.212;6.980;2022-12-07T11:14:03;14.97;;;6.77;;
50821;SDS011;36794;51.212;6.980;2022-12-07T11:19:24;14.73;;;6.80;;
50821;SDS011;36794;51.212;6.980;2022-12-07T11:21:57;16.38;;;6.10;;
50821;SDS011;36794;51.212;6.980;2022-12-07T11:34:45;15.23;;;6.20;;
50821;SDS011;36794;51.212;6.980;2022-12-07T11:37:15;13.00;;;5.93;;
50821;SDS011;36794;51.212;6.980;2022-12-07T11:39:47;11.87;;;5.50;;
50821;SDS011;36794;51.212;6.980;2022-12-07T11:42:27;10.57;;;4.82;;
50821;SDS011;36794;51.212;6.980;2022-12-07T11:44:57;19.40;;;5.70;;
50821;SDS011;36794;51.212;6.980;2022-12-07T11:49:56;13.93;;;4.93;;
50821;SDS011;36794;51.212;6.980;2022-12-07T11:52:40;18.00;;;4.63;;
50821;SDS011;36794;51.212;6.980;2022-12-07T11:55:14;11.53;;;4.60;;
50821;SDS011;36794;51.212;6.980;2022-12-07T11:57:42;12.97;;;4.30;;
50821;SDS011;36794;51.212;6.980;2022-12-07T12:00:14;10.13;;;3.80;;
50821;SDS011;36794;51.212;6.980;2022-12-07T12:02:46;9.00;;;3.50;;
50821;SDS011;36794;51.212;6.980;2022-12-07T12:05:16;9.80;;;3.23;;
50821;SDS011;36794;51.212;6.980;2022-12-07T12:07:43;10.37;;;3.70;;
50821;SDS011;36794;51.212;6.980;2022-12-07T12:10:15;11.17;;;4.37;;
50821;SDS011;36794;51.212;6.980;2022-12-07T12:15:38;11.97;;;3.73;;
50821;SDS011;36794;51.212;6.980;2022-12-07T12:18:22;13.43;;;3.60;;
50821;SDS011;36794;51.212;6.980;2022-12-07T12:20:55;10.77;;;3.23;;
50821;SDS011;36794;51.212;6.980;2022-12-07T12:23:32;10.20;;;3.10;;
50821;SDS011;36794;51.212;6.980;2022-12-07T12:26:02;9.67;;;3.40;;
50821;SDS011;36794;51.212;6.980;2022-12-07T12:28:35;9.33;;;3.00;;
50821;SDS011;36794;51.212;6.980;2022-12-07T12:31:09;8.73;;;3.23;;
50821;SDS011;36794;51.212;6.980;2022-12-07T12:33:35;14.40;;;4.47;;
50821;SDS011;36794;51.212;6.980;2022-12-07T12:39:26;13.20;;;3.43;;
50821;SDS011;36794;51.212;6.980;2022-12-07T12:46:53;12.93;;;3.80;;
50821;SDS011;36794;51.212;6.980;2022-12-07T12:54:37;14.55;;;3.58;;
50821;SDS011;36794;51.212;6.980;2022-12-07T12:59:33;15.07;;;4.03;;
50821;SDS011;36794;51.212;6.980;2022-12-07T13:02:21;11.03;;;3.70;;
50821;SDS011;36794;51.212;6.980;2022-12-07T13:04:51;12.27;;;3.90;;
50821;SDS011;36794;51.212;6.980;2022-12-07T13:10:02;11.05;;;3.65;;
50821;SDS011;36794;51.212;6.980;2022-12-07T13:12:28;10.87;;;3.73;;
50821;SDS011;36794;51.212;6.980;2022-12-07T13:14:55;7.70;;;3.57;;
50821;SDS011;36794;51.212;6.980;2022-12-07T13:20:06;12.30;;;4.17;;
50821;SDS011;36794;51.212;6.980;2022-12-07T13:25:05;10.67;;;3.57;;
50821;SDS011;36794;51.212;6.980;2022-12-07T13:27:31;11.47;;;3.83;;
50821;SDS011;36794;51.212;6.980;2022-12-07T13:29:57;10.43;;;3.80;;
50821;SDS011;36794;51.212;6.980;2022-12-07T13:32:25;11.03;;;3.60;;
50821;SDS011;36794;51.212;6.980;2022-12-07T13:34:51;11.43;;;3.33;;
50821;SDS011;36794;51.212;6.980;2022-12-07T13:37:27;11.47;;;3.70;;
50821;SDS011;36794;51.212;6.980;2022-12-07T13:39:54;6.67;;;2.93;;
50821;SDS011;36794;51.212;6.980;2022-12-07T13:42:30;5.80;;;2.93;;
50821;SDS011;36794;51.212;6.980;2022-12-07T13:44:58;13.70;;;3.90;;
50821;SDS011;36794;51.212;6.980;2022-12-07T13:49:52;20.60;;;3.87;;
50821;SDS011;36794;51.212;6.980;2022-12-07T13:52:25;10.17;;;3.10;;
50821;SDS011;36794;51.212;6.980;2022-12-07T13:54:56;13.17;;;2.97;;
50821;SDS011;36794;51.212;6.980;2022-12-07T13:57:24;8.70;;;2.83;;
50821;SDS011;36794;51.212;6.980;2022-12-07T13:59:53;11.60;;;2.90;;
50821;SDS011;36794;51.212;6.980;2022-12-07T14:02:27;6.57;;;2.70;;
50821;SDS011;36794;51.212;6.980;2022-12-07T14:10:22;9.70;;;2.80;;
50821;SDS011;36794;51.212;6.980;2022-12-07T14:12:49;11.17;;;3.63;;
50821;SDS011;36794;51.212;6.980;2022-12-07T14:15:19;9.67;;;3.20;;
50821;SDS011;36794;51.212;6.980;2022-12-07T14:17:50;12.27;;;2.80;;
50821;SDS011;36794;51.212;6.980;2022-12-07T14:22:56;6.23;;;2.40;;
50821;SDS011;36794;51.212;6.980;2022-12-07T14:25:23;6.60;;;1.90;;
50821;SDS011;36794;51.212;6.980;2022-12-07T14:27:53;10.07;;;1.80;;
50821;SDS011;36794;51.212;6.980;2022-12-07T14:30:21;16.03;;;2.70;;
50821;SDS011;36794;51.212;6.980;2022-12-07T14:32:50;13.80;;;2.17;;
50821;SDS011;36794;51.212;6.980;2022-12-07T14:35:17;8.67;;;2.70;;
50821;SDS011;36794;51.212;6.980;2022-12-07T14:37:45;9.30;;;2.07;;
50821;SDS011;36794;51.212;6.980;2022-12-07T14:40:12;13.13;;;2.60;;
50821;SDS011;36794;51.212;6.980;2022-12-07T14:42:38;9.73;;;2.17;;
50821;SDS011;36794;51.212;6.980;2022-12-07T14:45:05;7.27;;;2.40;;
50821;SDS011;36794;51.212;6.980;2022-12-07T14:47:31;11.60;;;3.10;;
50821;SDS011;36794;51.212;6.980;2022-12-07T14:49:57;8.50;;;2.00;;
50821;SDS011;36794;51.212;6.980;2022-12-07T14:52:24;7.07;;;1.83;;
50821;SDS011;36794;51.212;6.980;2022-12-07T14:54:52;6.27;;;1.90;;
50821;SDS011;36794;51.212;6.980;2022-12-07T14:57:19;10.43;;;2.23;;
50821;SDS011;36794;51.212;6.980;2022-12-07T14:59:45;8.17;;;3.03;;
50821;SDS011;36794;51.212;6.980;2022-12-07T15:02:12;10.93;;;2.40;;
50821;SDS011;36794;51.212;6.980;2022-12-07T15:04:38;9.67;;;2.30;;
50821;SDS011;36794;51.212;6.980;2022-12-07T15:07:05;7.00;;;2.23;;
50821;SDS011;36794;51.212;6.980;2022-12-07T15:09:32;11.30;;;2.50;;
50821;SDS011;36794;51.212;6.980;2022-12-07T15:11:57;11.67;;;2.27;;
50821;SDS011;36794;51.212;6.980;2022-12-07T15:14:23;8.80;;;2.00;;
50821;SDS011;36794;51.212;6.980;2022-12-07T15:16:49;10.83;;;2.60;;
50821;SDS011;36794;51.212;6.980;2022-12-07T15:19:19;7.00;;;2.27;;
50821;SDS011;36794;51.212;6.980;2022-12-07T15:21:48;9.80;;;2.60;;
50821;SDS011;36794;51.212;6.980;2022-12-07T15:24:14;10.83;;;2.30;;
50821;SDS011;36794;51.212;6.980;2022-12-07T15:26:40;9.53;;;2.70;;
50821;SDS011;36794;51.212;6.980;2022-12-07T15:29:13;9.17;;;2.80;;
50821;SDS011;36794;51.212;6.980;2022-12-07T15:31:40;11.50;;;2.50;;
50821;SDS011;36794;51.212;6.980;2022-12-07T15:34:06;10.57;;;2.63;;
50821;SDS011;36794;51.212;6.980;2022-12-07T15:36:33;12.57;;;3.50;;
50821;SDS011;36794;51.212;6.980;2022-12-07T15:38:59;11.43;;;3.47;;
50821;SDS011;36794;51.212;6.980;2022-12-07T15:41:25;6.57;;;2.90;;
50821;SDS011;36794;51.212;6.980;2022-12-07T15:43:51;8.00;;;3.13;;
50821;SDS011;36794;51.212;6.980;2022-12-07T15:46:37;10.52;;;3.17;;
50821;SDS011;36794;51.212;6.980;2022-12-07T15:49:05;9.67;;;4.00;;
50821;SDS011;36794;51.212;6.980;2022-12-07T15:51:31;12.17;;;3.90;;
50821;SDS011;36794;51.212;6.980;2022-12-07T15:53:57;13.23;;;3.50;;
50821;SDS011;36794;51.212;6.980;2022-12-07T15:56:24;10.07;;;3.70;;
50821;SDS011;36794;51.212;6.980;2022-12-07T15:58:50;13.13;;;3.87;;
50821;SDS011;36794;51.212;6.980;2022-12-07T16:01:16;11.77;;;4.70;;
50821;SDS011;36794;51.212;6.980;2022-12-07T16:03:43;13.60;;;4.47;;
50821;SDS011;36794;51.212;6.980;2022-12-07T16:06:10;13.70;;;4.87;;
50821;SDS011;36794;51.212;6.980;2022-12-07T16:08:36;11.87;;;4.63;;
50821;SDS011;36794;51.212;6.980;2022-12-07T16:11:05;10.63;;;5.00;;
50821;SDS011;36794;51.212;6.980;2022-12-07T16:13:31;11.20;;;4.37;;
50821;SDS011;36794;51.212;6.980;2022-12-07T16:15:57;14.00;;;5.70;;
50821;SDS011;36794;51.212;6.980;2022-12-07T16:18:23;13.73;;;6.10;;
50821;SDS011;36794;51.212;6.980;2022-12-07T16:21:08;16.50;;;7.07;;
50821;SDS011;36794;51.212;6.980;2022-12-07T16:23:34;14.07;;;6.57;;
50821;SDS011;36794;51.212;6.980;2022-12-07T16:26:13;15.80;;;7.07;;
50821;SDS011;36794;51.212;6.980;2022-12-07T16:28:40;14.33;;;7.03;;
50821;SDS011;36794;51.212;6.980;2022-12-07T16:31:08;15.33;;;7.53;;
50821;SDS011;36794;51.212;6.980;2022-12-07T16:33:34;17.27;;;7.77;;
50821;SDS011;36794;51.212;6.980;2022-12-07T16:36:01;23.57;;;8.37;;
50821;SDS011;36794;51.212;6.980;2022-12-07T16:38:27;17.03;;;8.63;;
50821;SDS011;36794;51.212;6.980;2022-12-07T16:40:53;16.77;;;9.03;;
50821;SDS011;36794;51.212;6.980;2022-12-07T16:43:19;15.10;;;8.30;;
50821;SDS011;36794;51.212;6.980;2022-12-07T16:45:46;17.07;;;8.17;;
50821;SDS011;36794;51.212;6.980;2022-12-07T16:48:13;18.30;;;7.77;;
50821;SDS011;36794;51.212;6.980;2022-12-07T16:50:40;17.60;;;7.93;;
50821;SDS011;36794;51.212;6.980;2022-12-07T16:53:06;13.73;;;7.10;;
50821;SDS011;36794;51.212;6.980;2022-12-07T16:55:35;17.97;;;7.10;;
50821;SDS011;36794;51.212;6.980;2022-12-07T16:58:01;15.33;;;7.10;;
50821;SDS011;36794;51.212;6.980;2022-12-07T17:00:27;15.93;;;7.73;;
50821;SDS011;36794;51.212;6.980;2022-12-07T17:02:53;15.90;;;8.03;;
50821;SDS011;36794;51.212;6.980;2022-12-07T17:05:20;16.03;;;7.60;;
50821;SDS011;36794;51.212;6.980;2022-12-07T17:07:46;16.63;;;8.57;;
50821;SDS011;36794;51.212;6.980;2022-12-07T17:10:12;15.30;;;8.60;;
50821;SDS011;36794;51.212;6.980;2022-12-07T17:12:37;17.30;;;8.73;;
50821;SDS011;36794;51.212;6.980;2022-12-07T17:15:04;15.23;;;8.37;;
50821;SDS011;36794;51.212;6.980;2022-12-07T17:17:45;15.60;;;7.80;;
50821;SDS011;36794;51.212;6.980;2022-12-07T17:20:11;15.87;;;9.07;;
50821;SDS011;36794;51.212;6.980;2022-12-07T17:22:37;17.17;;;8.30;;
50821;SDS011;36794;51.212;6.980;2022-12-07T17:25:03;20.97;;;8.80;;
50821;SDS011;36794;51.212;6.980;2022-12-07T17:27:30;16.90;;;9.53;;
50821;SDS011;36794;51.212;6.980;2022-12-07T17:29:56;19.60;;;10.30;;
50821;SDS011;36794;51.212;6.980;2022-12-07T17:32:22;25.00;;;10.20;;
50821;SDS011;36794;51.212;6.980;2022-12-07T17:34:48;15.77;;;9.67;;
50821;SDS011;36794;51.212;6.980;2022-12-07T17:37:14;18.43;;;10.53;;